Portada
METAR-TAF:

METAR-TAF

Aeropuertos :

Aeropuerto de Uagadugú

Uagadugú, Burkina Faso

latitud: 12-21N, longitud: 001-31W, altitud: 316 m

Observación

El informe se hizo hace 34 minutos, a las 10:00 UTC
Viento 12 kt del sur-suroeste, variando entre sur y oeste-suroeste
Temperatura 35°C
Humedad 42%
Presión 1012 hPa
Visibilidad 10 km o más
sin nubes por debajo de 1500 m y sin presencia de cumulonimbus.

METAR: DFFD 191000Z 21012KT 180V240 CAVOK 35/20 Q1012 NOSIG

Hora: 10:34 (10:34 UTC)

Pronóstico

El informe se hizo hace 5 horas y 34 minutos, a las 05:00 UTC
Pronóstico válido del 19 a las 06 UTC al 20 a las 12 UTC
Viento 8 kt con dirección variable
Visibilidad: 8000 m
Temporalmente
del 19 a las 14 UTC al 19 a las 22 UTC
Visibilidad: 4000 m
Nubes dispersas a una altura de 2600 ft
Escasas nubes a una altura de 4000 ft, Cumulonimbus.
tormenta, lluvia

TAF: DFFD 190500Z 1906/2012 VRB08KT 8000 NSC TEMPO 1914/1922 4000 TSRA SCT026 FEW040CB

Observaciones y pronósticos meteorológicos de más de 4000 aeropuertos (mensajes METAR y TAF).

Los puntos amarillos y rojos representan las estaciones disponibles.

Ponga el ratón en el punto deseado para ver el nombre de la estación.

Haga clic para ver las observaciones y los pronósticos meteorológicos.

Para cambiar el mapa : haga clic en los botones verdes con una cruz de color negro para hacer un zoom, en el botón verde con un guión para alejar o en las flechas verdes para mapas adyacentes.


METAR-TAF: